sensor_id;sensor_type;location;lat;lon;timestamp;P1;durP1;ratioP1;P2;durP2;ratioP2
13218;SDS011;6674;49.152;11.918;2023-02-15T00:01:44;9.70;;;7.33;;
13218;SDS011;6674;49.152;11.918;2023-02-15T00:04:12;10.93;;;8.57;;
13218;SDS011;6674;49.152;11.918;2023-02-15T00:06:40;11.90;;;8.90;;
13218;SDS011;6674;49.152;11.918;2023-02-15T00:09:08;15.97;;;12.07;;
13218;SDS011;6674;49.152;11.918;2023-02-15T00:11:35;13.13;;;10.47;;
13218;SDS011;6674;49.152;11.918;2023-02-15T00:14:15;11.23;;;8.53;;
13218;SDS011;6674;49.152;11.918;2023-02-15T00:16:44;22.43;;;8.93;;
13218;SDS011;6674;49.152;11.918;2023-02-15T00:19:11;12.70;;;7.03;;
13218;SDS011;6674;49.152;11.918;2023-02-15T00:21:42;10.70;;;8.03;;
13218;SDS011;6674;49.152;11.918;2023-02-15T00:24:11;10.10;;;7.80;;
13218;SDS011;6674;49.152;11.918;2023-02-15T00:26:40;14.07;;;9.20;;
13218;SDS011;6674;49.152;11.918;2023-02-15T00:29:07;10.03;;;7.90;;
13218;SDS011;6674;49.152;11.918;2023-02-15T00:31:35;9.87;;;7.40;;
13218;SDS011;6674;49.152;11.918;2023-02-15T00:34:02;10.67;;;8.17;;
13218;SDS011;6674;49.152;11.918;2023-02-15T00:36:32;19.53;;;9.10;;
13218;SDS011;6674;49.152;11.918;2023-02-15T00:38:59;10.57;;;8.30;;
13218;SDS011;6674;49.152;11.918;2023-02-15T00:41:29;13.93;;;9.17;;
13218;SDS011;6674;49.152;11.918;2023-02-15T00:43:56;14.60;;;9.43;;
13218;SDS011;6674;49.152;11.918;2023-02-15T00:46:24;11.33;;;8.50;;
13218;SDS011;6674;49.152;11.918;2023-02-15T00:48:51;11.87;;;8.50;;
13218;SDS011;6674;49.152;11.918;2023-02-15T00:51:17;11.97;;;8.60;;
13218;SDS011;6674;49.152;11.918;2023-02-15T00:53:46;32.03;;;9.63;;
13218;SDS011;6674;49.152;11.918;2023-02-15T00:56:13;19.17;;;8.97;;
13218;SDS011;6674;49.152;11.918;2023-02-15T00:58:42;12.23;;;9.07;;
13218;SDS011;6674;49.152;11.918;2023-02-15T01:01:09;10.60;;;8.00;;
13218;SDS011;6674;49.152;11.918;2023-02-15T01:03:38;13.70;;;9.67;;
13218;SDS011;6674;49.152;11.918;2023-02-15T01:06:06;12.43;;;9.07;;
13218;SDS011;6674;49.152;11.918;2023-02-15T01:08:33;11.80;;;8.53;;
13218;SDS011;6674;49.152;11.918;2023-02-15T01:11:02;26.07;;;10.67;;
13218;SDS011;6674;49.152;11.918;2023-02-15T01:13:30;16.87;;;9.23;;
13218;SDS011;6674;49.152;11.918;2023-02-15T01:15:58;12.53;;;8.97;;
13218;SDS011;6674;49.152;11.918;2023-02-15T01:18:25;15.67;;;9.17;;
13218;SDS011;6674;49.152;11.918;2023-02-15T01:20:52;11.07;;;8.47;;
13218;SDS011;6674;49.152;11.918;2023-02-15T01:23:19;48.50;;;11.07;;
13218;SDS011;6674;49.152;11.918;2023-02-15T01:25:46;12.43;;;8.80;;
13218;SDS011;6674;49.152;11.918;2023-02-15T01:28:14;10.67;;;7.77;;
13218;SDS011;6674;49.152;11.918;2023-02-15T01:30:41;10.67;;;8.20;;
13218;SDS011;6674;49.152;11.918;2023-02-15T01:33:09;87.43;;;12.20;;
13218;SDS011;6674;49.152;11.918;2023-02-15T01:35:42;9.50;;;7.53;;
13218;SDS011;6674;49.152;11.918;2023-02-15T01:38:11;11.17;;;8.17;;
13218;SDS011;6674;49.152;11.918;2023-02-15T01:40:38;9.47;;;7.30;;
13218;SDS011;6674;49.152;11.918;2023-02-15T01:43:07;10.43;;;7.40;;
13218;SDS011;6674;49.152;11.918;2023-02-15T01:45:36;9.77;;;8.03;;
13218;SDS011;6674;49.152;11.918;2023-02-15T01:48:04;15.43;;;9.03;;
13218;SDS011;6674;49.152;11.918;2023-02-15T01:50:36;11.37;;;7.87;;
13218;SDS011;6674;49.152;11.918;2023-02-15T01:53:05;10.13;;;7.73;;
13218;SDS011;6674;49.152;11.918;2023-02-15T01:55:36;10.23;;;8.27;;
13218;SDS011;6674;49.152;11.918;2023-02-15T01:58:06;22.40;;;8.73;;
13218;SDS011;6674;49.152;11.918;2023-02-15T02:00:34;14.73;;;8.53;;
13218;SDS011;6674;49.152;11.918;2023-02-15T02:03:01;11.03;;;7.63;;
13218;SDS011;6674;49.152;11.918;2023-02-15T02:05:28;11.37;;;7.97;;
13218;SDS011;6674;49.152;11.918;2023-02-15T02:07:57;9.50;;;7.27;;
13218;SDS011;6674;49.152;11.918;2023-02-15T02:10:27;10.53;;;7.93;;
13218;SDS011;6674;49.152;11.918;2023-02-15T02:12:54;13.23;;;8.40;;
13218;SDS011;6674;49.152;11.918;2023-02-15T02:15:32;10.07;;;7.67;;
13218;SDS011;6674;49.152;11.918;2023-02-15T02:18:09;12.30;;;8.50;;
13218;SDS011;6674;49.152;11.918;2023-02-15T02:21:11;12.50;;;8.93;;
13218;SDS011;6674;49.152;11.918;2023-02-15T02:24:01;12.13;;;8.00;;
13218;SDS011;6674;49.152;11.918;2023-02-15T02:30:06;9.83;;;7.57;;
13218;SDS011;6674;49.152;11.918;2023-02-15T02:32:53;10.10;;;7.67;;
13218;SDS011;6674;49.152;11.918;2023-02-15T02:35:35;11.80;;;8.80;;
13218;SDS011;6674;49.152;11.918;2023-02-15T02:38:10;11.83;;;8.53;;
13218;SDS011;6674;49.152;11.918;2023-02-15T02:40:43;10.83;;;8.50;;
13218;SDS011;6674;49.152;11.918;2023-02-15T02:43:18;17.37;;;8.40;;
13218;SDS011;6674;49.152;11.918;2023-02-15T02:45:53;8.63;;;6.93;;
13218;SDS011;6674;49.152;11.918;2023-02-15T02:48:25;9.47;;;7.10;;
13218;SDS011;6674;49.152;11.918;2023-02-15T02:50:55;10.00;;;7.13;;
13218;SDS011;6674;49.152;11.918;2023-02-15T02:53:22;11.53;;;8.40;;
13218;SDS011;6674;49.152;11.918;2023-02-15T02:55:49;15.20;;;7.93;;
13218;SDS011;6674;49.152;11.918;2023-02-15T02:58:20;15.40;;;8.53;;
13218;SDS011;6674;49.152;11.918;2023-02-15T03:00:52;10.37;;;7.70;;
13218;SDS011;6674;49.152;11.918;2023-02-15T03:03:22;9.60;;;7.17;;
13218;SDS011;6674;49.152;11.918;2023-02-15T03:05:58;11.43;;;8.13;;
13218;SDS011;6674;49.152;11.918;2023-02-15T03:08:26;9.97;;;7.73;;
13218;SDS011;6674;49.152;11.918;2023-02-15T03:10:59;10.87;;;7.93;;
13218;SDS011;6674;49.152;11.918;2023-02-15T03:13:27;10.00;;;7.57;;
13218;SDS011;6674;49.152;11.918;2023-02-15T03:15:54;9.33;;;7.03;;
13218;SDS011;6674;49.152;11.918;2023-02-15T03:18:43;9.37;;;6.90;;
13218;SDS011;6674;49.152;11.918;2023-02-15T03:21:17;61.33;;;10.90;;
13218;SDS011;6674;49.152;11.918;2023-02-15T03:23:48;9.97;;;7.97;;
13218;SDS011;6674;49.152;11.918;2023-02-15T03:26:19;9.97;;;7.70;;
13218;SDS011;6674;49.152;11.918;2023-02-15T03:28:47;9.23;;;7.10;;
13218;SDS011;6674;49.152;11.918;2023-02-15T03:31:19;14.77;;;9.27;;
13218;SDS011;6674;49.152;11.918;2023-02-15T03:33:57;45.63;;;10.47;;
13218;SDS011;6674;49.152;11.918;2023-02-15T03:36:27;13.23;;;8.87;;
13218;SDS011;6674;49.152;11.918;2023-02-15T03:38:59;14.47;;;8.50;;
13218;SDS011;6674;49.152;11.918;2023-02-15T03:41:31;19.47;;;9.30;;
13218;SDS011;6674;49.152;11.918;2023-02-15T03:44:03;33.47;;;10.07;;
13218;SDS011;6674;49.152;11.918;2023-02-15T03:46:33;10.80;;;7.73;;
13218;SDS011;6674;49.152;11.918;2023-02-15T03:49:08;9.20;;;6.60;;
13218;SDS011;6674;49.152;11.918;2023-02-15T03:51:40;17.87;;;9.07;;
13218;SDS011;6674;49.152;11.918;2023-02-15T03:54:09;40.80;;;10.33;;
13218;SDS011;6674;49.152;11.918;2023-02-15T03:56:38;94.67;;;13.73;;
13218;SDS011;6674;49.152;11.918;2023-02-15T03:59:27;12.10;;;8.40;;
13218;SDS011;6674;49.152;11.918;2023-02-15T04:02:13;10.00;;;7.70;;
13218;SDS011;6674;49.152;11.918;2023-02-15T04:04:47;58.40;;;10.50;;
13218;SDS011;6674;49.152;11.918;2023-02-15T04:07:14;28.60;;;10.13;;
13218;SDS011;6674;49.152;11.918;2023-02-15T04:09:40;115.50;;;13.53;;
13218;SDS011;6674;49.152;11.918;2023-02-15T04:12:25;14.87;;;8.33;;
13218;SDS011;6674;49.152;11.918;2023-02-15T04:14:53;373.07;;;25.03;;
13218;SDS011;6674;49.152;11.918;2023-02-15T04:17:38;42.40;;;10.27;;
13218;SDS011;6674;49.152;11.918;2023-02-15T04:20:07;16.53;;;8.60;;
13218;SDS011;6674;49.152;11.918;2023-02-15T04:22:53;71.50;;;12.03;;
13218;SDS011;6674;49.152;11.918;2023-02-15T04:25:37;14.80;;;8.90;;
13218;SDS011;6674;49.152;11.918;2023-02-15T04:28:04;12.93;;;7.90;;
13218;SDS011;6674;49.152;11.918;2023-02-15T04:30:32;12.83;;;8.37;;
13218;SDS011;6674;49.152;11.918;2023-02-15T04:32:59;12.50;;;8.37;;
13218;SDS011;6674;49.152;11.918;2023-02-15T04:35:27;11.70;;;8.43;;
13218;SDS011;6674;49.152;11.918;2023-02-15T04:37:53;11.80;;;7.77;;
13218;SDS011;6674;49.152;11.918;2023-02-15T04:40:21;11.40;;;7.90;;
13218;SDS011;6674;49.152;11.918;2023-02-15T04:42:48;11.77;;;7.87;;
13218;SDS011;6674;49.152;11.918;2023-02-15T04:45:15;12.67;;;8.43;;
13218;SDS011;6674;49.152;11.918;2023-02-15T04:47:42;13.37;;;7.57;;
13218;SDS011;6674;49.152;11.918;2023-02-15T04:50:08;12.37;;;8.53;;
13218;SDS011;6674;49.152;11.918;2023-02-15T04:52:37;14.07;;;8.30;;
13218;SDS011;6674;49.152;11.918;2023-02-15T04:55:04;12.43;;;8.40;;
13218;SDS011;6674;49.152;11.918;2023-02-15T04:57:31;10.23;;;7.37;;
13218;SDS011;6674;49.152;11.918;2023-02-15T04:59:58;12.30;;;7.73;;
13218;SDS011;6674;49.152;11.918;2023-02-15T05:02:24;12.33;;;7.97;;
13218;SDS011;6674;49.152;11.918;2023-02-15T05:04:51;11.73;;;7.50;;
13218;SDS011;6674;49.152;11.918;2023-02-15T05:07:17;47.03;;;10.43;;
13218;SDS011;6674;49.152;11.918;2023-02-15T05:09:46;10.53;;;7.50;;
13218;SDS011;6674;49.152;11.918;2023-02-15T05:12:13;10.03;;;7.00;;
13218;SDS011;6674;49.152;11.918;2023-02-15T05:14:39;12.03;;;8.40;;
13218;SDS011;6674;49.152;11.918;2023-02-15T05:17:07;48.40;;;10.53;;
13218;SDS011;6674;49.152;11.918;2023-02-15T05:19:34;29.73;;;10.33;;
13218;SDS011;6674;49.152;11.918;2023-02-15T05:22:01;16.77;;;8.60;;
13218;SDS011;6674;49.152;11.918;2023-02-15T05:24:28;44.30;;;10.77;;
13218;SDS011;6674;49.152;11.918;2023-02-15T05:27:13;76.63;;;12.63;;
13218;SDS011;6674;49.152;11.918;2023-02-15T05:29:57;18.17;;;9.60;;
13218;SDS011;6674;49.152;11.918;2023-02-15T05:32:26;99.33;;;14.30;;
13218;SDS011;6674;49.152;11.918;2023-02-15T05:34:52;11.60;;;8.17;;
13218;SDS011;6674;49.152;11.918;2023-02-15T05:37:20;20.13;;;9.30;;
13218;SDS011;6674;49.152;11.918;2023-02-15T05:39:46;12.30;;;8.50;;
13218;SDS011;6674;49.152;11.918;2023-02-15T05:42:17;12.47;;;8.37;;
13218;SDS011;6674;49.152;11.918;2023-02-15T05:44:43;17.77;;;11.53;;
13218;SDS011;6674;49.152;11.918;2023-02-15T05:47:10;16.27;;;12.63;;
13218;SDS011;6674;49.152;11.918;2023-02-15T05:49:36;281.93;;;23.13;;
13218;SDS011;6674;49.152;11.918;2023-02-15T05:52:03;12.20;;;8.10;;
13218;SDS011;6674;49.152;11.918;2023-02-15T05:54:31;64.83;;;11.67;;
13218;SDS011;6674;49.152;11.918;2023-02-15T05:56:57;20.90;;;10.43;;
13218;SDS011;6674;49.152;11.918;2023-02-15T05:59:25;13.67;;;8.80;;
13218;SDS011;6674;49.152;11.918;2023-02-15T06:01:52;11.33;;;7.60;;
13218;SDS011;6674;49.152;11.918;2023-02-15T06:04:18;13.73;;;8.90;;
13218;SDS011;6674;49.152;11.918;2023-02-15T06:06:45;12.07;;;8.77;;
13218;SDS011;6674;49.152;11.918;2023-02-15T06:09:13;90.73;;;24.03;;
13218;SDS011;6674;49.152;11.918;2023-02-15T06:11:43;27.27;;;10.83;;
13218;SDS011;6674;49.152;11.918;2023-02-15T06:14:11;121.43;;;14.67;;
13218;SDS011;6674;49.152;11.918;2023-02-15T06:16:40;13.63;;;8.10;;
13218;SDS011;6674;49.152;11.918;2023-02-15T06:19:07;10.73;;;7.27;;
13218;SDS011;6674;49.152;11.918;2023-02-15T06:21:34;11.03;;;7.67;;
13218;SDS011;6674;49.152;11.918;2023-02-15T06:24:00;16.90;;;9.80;;
13218;SDS011;6674;49.152;11.918;2023-02-15T06:26:27;15.60;;;9.67;;
13218;SDS011;6674;49.152;11.918;2023-02-15T06:28:54;22.97;;;9.57;;
13218;SDS011;6674;49.152;11.918;2023-02-15T06:31:20;21.80;;;8.80;;
13218;SDS011;6674;49.152;11.918;2023-02-15T06:33:48;25.97;;;10.57;;
13218;SDS011;6674;49.152;11.918;2023-02-15T06:36:15;15.47;;;11.53;;
13218;SDS011;6674;49.152;11.918;2023-02-15T06:38:41;13.33;;;9.73;;
13218;SDS011;6674;49.152;11.918;2023-02-15T06:41:08;12.60;;;9.23;;
13218;SDS011;6674;49.152;11.918;2023-02-15T06:43:36;13.23;;;8.93;;
13218;SDS011;6674;49.152;11.918;2023-02-15T06:46:02;13.50;;;8.93;;
13218;SDS011;6674;49.152;11.918;2023-02-15T06:48:29;131.93;;;16.73;;
13218;SDS011;6674;49.152;11.918;2023-02-15T06:50:57;12.57;;;8.57;;
13218;SDS011;6674;49.152;11.918;2023-02-15T06:53:23;13.80;;;9.10;;
13218;SDS011;6674;49.152;11.918;2023-02-15T06:55:50;16.10;;;8.97;;
13218;SDS011;6674;49.152;11.918;2023-02-15T06:58:17;16.40;;;9.77;;
13218;SDS011;6674;49.152;11.918;2023-02-15T07:00:43;10.90;;;7.97;;
13218;SDS011;6674;49.152;11.918;2023-02-15T07:03:12;17.70;;;9.03;;
13218;SDS011;6674;49.152;11.918;2023-02-15T07:05:39;11.57;;;8.07;;
13218;SDS011;6674;49.152;11.918;2023-02-15T07:08:07;11.07;;;8.33;;
13218;SDS011;6674;49.152;11.918;2023-02-15T07:10:33;21.17;;;11.10;;
13218;SDS011;6674;49.152;11.918;2023-02-15T07:13:00;16.27;;;9.93;;
13218;SDS011;6674;49.152;11.918;2023-02-15T07:15:26;23.07;;;9.93;;
13218;SDS011;6674;49.152;11.918;2023-02-15T07:17:52;13.60;;;8.53;;
13218;SDS011;6674;49.152;11.918;2023-02-15T07:20:20;11.43;;;8.60;;
13218;SDS011;6674;49.152;11.918;2023-02-15T07:22:48;23.00;;;9.93;;
13218;SDS011;6674;49.152;11.918;2023-02-15T07:25:16;15.63;;;8.20;;
13218;SDS011;6674;49.152;11.918;2023-02-15T07:27:43;13.40;;;9.40;;
13218;SDS011;6674;49.152;11.918;2023-02-15T07:30:11;18.27;;;10.43;;
13218;SDS011;6674;49.152;11.918;2023-02-15T07:32:39;14.33;;;9.33;;
13218;SDS011;6674;49.152;11.918;2023-02-15T07:35:26;10.70;;;7.73;;
13218;SDS011;6674;49.152;11.918;2023-02-15T07:37:53;47.17;;;11.00;;
13218;SDS011;6674;49.152;11.918;2023-02-15T07:40:21;13.70;;;9.83;;
13218;SDS011;6674;49.152;11.918;2023-02-15T07:42:48;11.40;;;8.90;;
13218;SDS011;6674;49.152;11.918;2023-02-15T07:45:18;26.00;;;10.80;;
13218;SDS011;6674;49.152;11.918;2023-02-15T07:47:45;156.60;;;15.57;;
13218;SDS011;6674;49.152;11.918;2023-02-15T07:50:12;31.63;;;9.97;;
13218;SDS011;6674;49.152;11.918;2023-02-15T07:52:40;129.53;;;15.20;;
13218;SDS011;6674;49.152;11.918;2023-02-15T07:55:07;17.97;;;9.50;;
13218;SDS011;6674;49.152;11.918;2023-02-15T07:57:42;44.00;;;11.23;;
13218;SDS011;6674;49.152;11.918;2023-02-15T08:00:11;12.13;;;8.50;;
13218;SDS011;6674;49.152;11.918;2023-02-15T08:02:39;14.30;;;9.10;;
13218;SDS011;6674;49.152;11.918;2023-02-15T08:05:07;102.83;;;14.00;;
13218;SDS011;6674;49.152;11.918;2023-02-15T08:07:33;18.07;;;9.43;;
13218;SDS011;6674;49.152;11.918;2023-02-15T08:10:00;32.83;;;11.47;;
13218;SDS011;6674;49.152;11.918;2023-02-15T08:12:27;25.27;;;10.47;;
13218;SDS011;6674;49.152;11.918;2023-02-15T08:14:55;196.10;;;18.83;;
13218;SDS011;6674;49.152;11.918;2023-02-15T08:17:23;355.07;;;27.33;;
13218;SDS011;6674;49.152;11.918;2023-02-15T08:19:50;313.43;;;24.90;;
13218;SDS011;6674;49.152;11.918;2023-02-15T08:22:17;115.10;;;15.30;;
13218;SDS011;6674;49.152;11.918;2023-02-15T08:24:43;22.60;;;10.83;;
13218;SDS011;6674;49.152;11.918;2023-02-15T08:27:17;33.50;;;10.87;;
13218;SDS011;6674;49.152;11.918;2023-02-15T08:29:51;28.13;;;11.10;;
13218;SDS011;6674;49.152;11.918;2023-02-15T08:32:19;99.87;;;14.63;;
13218;SDS011;6674;49.152;11.918;2023-02-15T08:34:46;19.90;;;9.47;;
13218;SDS011;6674;49.152;11.918;2023-02-15T08:37:14;14.97;;;9.73;;
13218;SDS011;6674;49.152;11.918;2023-02-15T08:42:24;27.17;;;9.60;;
13218;SDS011;6674;49.152;11.918;2023-02-15T08:44:52;21.73;;;9.83;;
13218;SDS011;6674;49.152;11.918;2023-02-15T08:47:20;129.67;;;16.17;;
13218;SDS011;6674;49.152;11.918;2023-02-15T08:49:47;22.67;;;10.67;;
13218;SDS011;6674;49.152;11.918;2023-02-15T08:52:14;52.20;;;12.13;;
13218;SDS011;6674;49.152;11.918;2023-02-15T08:54:40;42.57;;;11.97;;
13218;SDS011;6674;49.152;11.918;2023-02-15T08:57:07;81.00;;;13.37;;
13218;SDS011;6674;49.152;11.918;2023-02-15T08:59:35;54.60;;;12.03;;
13218;SDS011;6674;49.152;11.918;2023-02-15T09:02:01;63.17;;;12.80;;
13218;SDS011;6674;49.152;11.918;2023-02-15T09:04:30;29.40;;;10.87;;
13218;SDS011;6674;49.152;11.918;2023-02-15T09:06:57;76.23;;;12.93;;
13218;SDS011;6674;49.152;11.918;2023-02-15T09:09:24;174.50;;;17.53;;
13218;SDS011;6674;49.152;11.918;2023-02-15T09:11:51;117.67;;;15.13;;
13218;SDS011;6674;49.152;11.918;2023-02-15T09:14:18;103.83;;;14.47;;
13218;SDS011;6674;49.152;11.918;2023-02-15T09:16:46;46.43;;;12.10;;
13218;SDS011;6674;49.152;11.918;2023-02-15T09:19:16;27.23;;;10.50;;
13218;SDS011;6674;49.152;11.918;2023-02-15T09:21:44;64.00;;;13.33;;
13218;SDS011;6674;49.152;11.918;2023-02-15T09:24:13;105.93;;;15.37;;
13218;SDS011;6674;49.152;11.918;2023-02-15T09:26:42;102.80;;;13.60;;
13218;SDS011;6674;49.152;11.918;2023-02-15T09:29:11;67.30;;;12.00;;
13218;SDS011;6674;49.152;11.918;2023-02-15T09:31:38;52.57;;;11.83;;
13218;SDS011;6674;49.152;11.918;2023-02-15T09:34:11;11.83;;;8.97;;
13218;SDS011;6674;49.152;11.918;2023-02-15T09:36:39;29.80;;;10.20;;
13218;SDS011;6674;49.152;11.918;2023-02-15T09:39:08;44.47;;;11.37;;
13218;SDS011;6674;49.152;11.918;2023-02-15T09:41:40;17.17;;;10.23;;
13218;SDS011;6674;49.152;11.918;2023-02-15T09:44:22;51.13;;;11.63;;
13218;SDS011;6674;49.152;11.918;2023-02-15T09:47:04;15.27;;;9.67;;
13218;SDS011;6674;49.152;11.918;2023-02-15T09:49:42;49.70;;;11.07;;
13218;SDS011;6674;49.152;11.918;2023-02-15T09:52:20;29.73;;;10.80;;
13218;SDS011;6674;49.152;11.918;2023-02-15T09:55:03;110.63;;;15.60;;
13218;SDS011;6674;49.152;11.918;2023-02-15T09:57:40;100.90;;;15.20;;
13218;SDS011;6674;49.152;11.918;2023-02-15T10:00:16;20.87;;;10.47;;
13218;SDS011;6674;49.152;11.918;2023-02-15T10:02:57;48.20;;;13.07;;
13218;SDS011;6674;49.152;11.918;2023-02-15T10:05:38;29.73;;;12.43;;
13218;SDS011;6674;49.152;11.918;2023-02-15T10:08:24;12.33;;;9.23;;
13218;SDS011;6674;49.152;11.918;2023-02-15T10:11:08;72.93;;;14.27;;
13218;SDS011;6674;49.152;11.918;2023-02-15T10:13:58;24.43;;;11.97;;
13218;SDS011;6674;49.152;11.918;2023-02-15T10:16:40;13.90;;;10.63;;
13218;SDS011;6674;49.152;11.918;2023-02-15T10:19:17;50.77;;;13.47;;
13218;SDS011;6674;49.152;11.918;2023-02-15T10:21:53;36.07;;;12.40;;
13218;SDS011;6674;49.152;11.918;2023-02-15T10:24:35;13.83;;;10.50;;
13218;SDS011;6674;49.152;11.918;2023-02-15T10:27:11;14.83;;;10.70;;
13218;SDS011;6674;49.152;11.918;2023-02-15T10:29:39;15.70;;;9.50;;
13218;SDS011;6674;49.152;11.918;2023-02-15T10:32:16;11.70;;;8.97;;
13218;SDS011;6674;49.152;11.918;2023-02-15T10:34:50;18.47;;;10.13;;
13218;SDS011;6674;49.152;11.918;2023-02-15T10:37:26;36.03;;;22.27;;
13218;SDS011;6674;49.152;11.918;2023-02-15T10:40:05;101.60;;;15.70;;
13218;SDS011;6674;49.152;11.918;2023-02-15T10:42:40;11.30;;;9.47;;
13218;SDS011;6674;49.152;11.918;2023-02-15T10:45:21;14.13;;;10.80;;
13218;SDS011;6674;49.152;11.918;2023-02-15T10:47:55;11.17;;;9.03;;
13218;SDS011;6674;49.152;11.918;2023-02-15T10:50:45;14.03;;;9.97;;
13218;SDS011;6674;49.152;11.918;2023-02-15T10:56:31;31.03;;;12.63;;
13218;SDS011;6674;49.152;11.918;2023-02-15T10:59:10;24.47;;;12.00;;
13218;SDS011;6674;49.152;11.918;2023-02-15T11:01:51;19.03;;;12.57;;
13218;SDS011;6674;49.152;11.918;2023-02-15T11:07:13;23.43;;;11.67;;
13218;SDS011;6674;49.152;11.918;2023-02-15T11:09:44;15.83;;;10.33;;
13218;SDS011;6674;49.152;11.918;2023-02-15T11:12:16;18.37;;;10.83;;
13218;SDS011;6674;49.152;11.918;2023-02-15T11:14:47;24.13;;;11.83;;
13218;SDS011;6674;49.152;11.918;2023-02-15T11:17:21;30.03;;;11.77;;
13218;SDS011;6674;49.152;11.918;2023-02-15T11:19:54;22.10;;;11.90;;
13218;SDS011;6674;49.152;11.918;2023-02-15T11:22:26;15.10;;;11.50;;
13218;SDS011;6674;49.152;11.918;2023-02-15T11:24:53;16.50;;;11.17;;
13218;SDS011;6674;49.152;11.918;2023-02-15T11:27:23;13.77;;;10.47;;
13218;SDS011;6674;49.152;11.918;2023-02-15T11:29:55;20.33;;;12.30;;
13218;SDS011;6674;49.152;11.918;2023-02-15T11:32:26;17.87;;;12.43;;
13218;SDS011;6674;49.152;11.918;2023-02-15T11:34:58;15.03;;;11.67;;
13218;SDS011;6674;49.152;11.918;2023-02-15T11:37:29;19.80;;;12.53;;
13218;SDS011;6674;49.152;11.918;2023-02-15T11:40:02;42.93;;;15.43;;
13218;SDS011;6674;49.152;11.918;2023-02-15T11:42:40;69.27;;;17.30;;
13218;SDS011;6674;49.152;11.918;2023-02-15T11:45:16;32.50;;;14.90;;
13218;SDS011;6674;49.152;11.918;2023-02-15T11:47:47;31.23;;;15.80;;
13218;SDS011;6674;49.152;11.918;2023-02-15T11:50:15;19.87;;;13.20;;
13218;SDS011;6674;49.152;11.918;2023-02-15T11:52:44;39.13;;;15.50;;
13218;SDS011;6674;49.152;11.918;2023-02-15T11:55:11;34.13;;;14.53;;
13218;SDS011;6674;49.152;11.918;2023-02-15T11:57:41;24.97;;;14.30;;
13218;SDS011;6674;49.152;11.918;2023-02-15T12:00:14;15.97;;;11.93;;
13218;SDS011;6674;49.152;11.918;2023-02-15T12:02:50;16.20;;;12.63;;
13218;SDS011;6674;49.152;11.918;2023-02-15T12:05:21;17.57;;;12.47;;
13218;SDS011;6674;49.152;11.918;2023-02-15T12:07:52;18.70;;;15.63;;
13218;SDS011;6674;49.152;11.918;2023-02-15T12:10:22;16.40;;;12.43;;
13218;SDS011;6674;49.152;11.918;2023-02-15T12:13:07;19.93;;;15.80;;
13218;SDS011;6674;49.152;11.918;2023-02-15T12:15:36;16.07;;;12.87;;
13218;SDS011;6674;49.152;11.918;2023-02-15T12:18:04;17.63;;;14.57;;
13218;SDS011;6674;49.152;11.918;2023-02-15T12:20:32;21.87;;;15.57;;
13218;SDS011;6674;49.152;11.918;2023-02-15T12:23:01;29.37;;;16.90;;
13218;SDS011;6674;49.152;11.918;2023-02-15T12:25:33;28.33;;;14.90;;
13218;SDS011;6674;49.152;11.918;2023-02-15T12:28:03;27.73;;;14.83;;
13218;SDS011;6674;49.152;11.918;2023-02-15T12:30:43;24.57;;;13.00;;
13218;SDS011;6674;49.152;11.918;2023-02-15T12:33:13;28.50;;;15.10;;
13218;SDS011;6674;49.152;11.918;2023-02-15T12:35:44;17.00;;;13.17;;
13218;SDS011;6674;49.152;11.918;2023-02-15T12:38:20;22.17;;;14.80;;
13218;SDS011;6674;49.152;11.918;2023-02-15T12:40:56;55.80;;;16.87;;
13218;SDS011;6674;49.152;11.918;2023-02-15T12:43:25;16.00;;;13.10;;
13218;SDS011;6674;49.152;11.918;2023-02-15T12:45:54;61.20;;;17.80;;
13218;SDS011;6674;49.152;11.918;2023-02-15T12:48:41;38.10;;;15.43;;
13218;SDS011;6674;49.152;11.918;2023-02-15T12:51:08;17.63;;;13.33;;
13218;SDS011;6674;49.152;11.918;2023-02-15T12:53:39;23.63;;;15.67;;
13218;SDS011;6674;49.152;11.918;2023-02-15T12:56:07;21.87;;;15.60;;
13218;SDS011;6674;49.152;11.918;2023-02-15T12:58:36;21.43;;;14.03;;
13218;SDS011;6674;49.152;11.918;2023-02-15T13:01:09;17.93;;;13.07;;
13218;SDS011;6674;49.152;11.918;2023-02-15T13:03:39;20.30;;;14.60;;
13218;SDS011;6674;49.152;11.918;2023-02-15T13:06:23;23.20;;;15.40;;
13218;SDS011;6674;49.152;11.918;2023-02-15T13:08:51;17.87;;;13.53;;
13218;SDS011;6674;49.152;11.918;2023-02-15T13:11:23;17.37;;;13.93;;
13218;SDS011;6674;49.152;11.918;2023-02-15T13:13:53;20.83;;;15.00;;
13218;SDS011;6674;49.152;11.918;2023-02-15T13:16:24;21.57;;;14.73;;
13218;SDS011;6674;49.152;11.918;2023-02-15T13:18:57;19.97;;;14.93;;
13218;SDS011;6674;49.152;11.918;2023-02-15T13:21:26;27.00;;;16.07;;
13218;SDS011;6674;49.152;11.918;2023-02-15T13:23:59;32.57;;;15.37;;
13218;SDS011;6674;49.152;11.918;2023-02-15T13:26:30;17.87;;;13.83;;
13218;SDS011;6674;49.152;11.918;2023-02-15T13:28:58;22.13;;;15.73;;
13218;SDS011;6674;49.152;11.918;2023-02-15T13:31:34;19.40;;;15.13;;
13218;SDS011;6674;49.152;11.918;2023-02-15T13:34:03;19.60;;;15.57;;
13218;SDS011;6674;49.152;11.918;2023-02-15T13:36:38;24.17;;;16.47;;
13218;SDS011;6674;49.152;11.918;2023-02-15T13:39:17;19.87;;;15.27;;
13218;SDS011;6674;49.152;11.918;2023-02-15T13:41:53;18.43;;;13.97;;
13218;SDS011;6674;49.152;11.918;2023-02-15T13:44:44;19.73;;;14.50;;
13218;SDS011;6674;49.152;11.918;2023-02-15T13:47:32;18.60;;;14.00;;
13218;SDS011;6674;49.152;11.918;2023-02-15T13:50:10;20.50;;;15.27;;
13218;SDS011;6674;49.152;11.918;2023-02-15T13:52:50;18.03;;;13.93;;
13218;SDS011;6674;49.152;11.918;2023-02-15T13:55:26;17.80;;;13.87;;
13218;SDS011;6674;49.152;11.918;2023-02-15T13:58:04;21.77;;;15.43;;
13218;SDS011;6674;49.152;11.918;2023-02-15T14:00:47;21.47;;;15.23;;
13218;SDS011;6674;49.152;11.918;2023-02-15T14:03:38;22.33;;;14.73;;
13218;SDS011;6674;49.152;11.918;2023-02-15T14:06:27;23.20;;;16.53;;
13218;SDS011;6674;49.152;11.918;2023-02-15T14:09:06;22.77;;;14.00;;
13218;SDS011;6674;49.152;11.918;2023-02-15T14:11:41;29.83;;;17.27;;
13218;SDS011;6674;49.152;11.918;2023-02-15T14:14:23;32.10;;;16.20;;
13218;SDS011;6674;49.152;11.918;2023-02-15T14:17:13;20.33;;;15.30;;
13218;SDS011;6674;49.152;11.918;2023-02-15T14:19:48;19.47;;;13.83;;
13218;SDS011;6674;49.152;11.918;2023-02-15T14:22:21;19.50;;;15.27;;
13218;SDS011;6674;49.152;11.918;2023-02-15T14:24:59;20.20;;;15.40;;
13218;SDS011;6674;49.152;11.918;2023-02-15T14:27:44;22.47;;;15.67;;
13218;SDS011;6674;49.152;11.918;2023-02-15T14:30:18;20.10;;;14.53;;
13218;SDS011;6674;49.152;11.918;2023-02-15T14:32:48;20.80;;;15.43;;
13218;SDS011;6674;49.152;11.918;2023-02-15T14:35:20;23.03;;;16.47;;
13218;SDS011;6674;49.152;11.918;2023-02-15T14:37:50;19.40;;;14.73;;
13218;SDS011;6674;49.152;11.918;2023-02-15T14:40:26;19.73;;;14.57;;
13218;SDS011;6674;49.152;11.918;2023-02-15T14:43:21;19.23;;;13.47;;
13218;SDS011;6674;49.152;11.918;2023-02-15T14:45:55;17.53;;;13.20;;
13218;SDS011;6674;49.152;11.918;2023-02-15T14:48:28;18.30;;;13.60;;
13218;SDS011;6674;49.152;11.918;2023-02-15T14:51:00;22.13;;;15.33;;
13218;SDS011;6674;49.152;11.918;2023-02-15T14:53:35;20.40;;;14.70;;
13218;SDS011;6674;49.152;11.918;2023-02-15T14:56:22;32.80;;;17.50;;
13218;SDS011;6674;49.152;11.918;2023-02-15T14:59:00;22.50;;;16.13;;
13218;SDS011;6674;49.152;11.918;2023-02-15T15:01:42;26.47;;;16.83;;
13218;SDS011;6674;49.152;11.918;2023-02-15T15:04:22;17.87;;;13.57;;
13218;SDS011;6674;49.152;11.918;2023-02-15T15:06:59;17.57;;;13.07;;